sensor_id;sensor_type;location;lat;lon;timestamp;pressure;altitude;pressure_sealevel;temperature;humidity
83100;BME280;72972;51.784;4.660;2024-03-29T00:01:33;99050.16;;;9.12;70.80
83100;BME280;72972;51.784;4.660;2024-03-29T00:03:59;99057.28;;;9.13;70.98
83100;BME280;72972;51.784;4.660;2024-03-29T00:06:25;99047.66;;;9.11;70.36
83100;BME280;72972;51.784;4.660;2024-03-29T00:08:50;99039.91;;;9.08;70.15
83100;BME280;72972;51.784;4.660;2024-03-29T00:11:16;99048.50;;;9.11;69.71
83100;BME280;72972;51.784;4.660;2024-03-29T00:13:41;99043.03;;;9.11;70.19
83100;BME280;72972;51.784;4.660;2024-03-29T00:16:06;99047.78;;;9.16;70.00
83100;BME280;72972;51.784;4.660;2024-03-29T00:18:32;99045.41;;;9.19;70.63
83100;BME280;72972;51.784;4.660;2024-03-29T00:20:57;99053.63;;;9.19;70.38
83100;BME280;72972;51.784;4.660;2024-03-29T00:23:23;99056.72;;;9.23;69.98
83100;BME280;72972;51.784;4.660;2024-03-29T00:25:48;99063.97;;;9.17;70.77
83100;BME280;72972;51.784;4.660;2024-03-29T00:28:14;99058.50;;;9.17;70.03
83100;BME280;72972;51.784;4.660;2024-03-29T00:30:39;99054.69;;;9.18;70.06
83100;BME280;72972;51.784;4.660;2024-03-29T00:33:04;99053.63;;;9.19;70.73
83100;BME280;72972;51.784;4.660;2024-03-29T00:35:30;99037.56;;;9.11;70.88
83100;BME280;72972;51.784;4.660;2024-03-29T00:37:56;99055.41;;;9.25;70.11
83100;BME280;72972;51.784;4.660;2024-03-29T00:40:21;99060.44;;;9.28;69.79
83100;BME280;72972;51.784;4.660;2024-03-29T00:42:47;99056.03;;;9.27;70.28
83100;BME280;72972;51.784;4.660;2024-03-29T00:45:12;99055.56;;;9.30;70.26
83100;BME280;72972;51.784;4.660;2024-03-29T00:47:37;99058.06;;;9.32;69.45
83100;BME280;72972;51.784;4.660;2024-03-29T00:50:03;99060.56;;;9.33;69.59
83100;BME280;72972;51.784;4.660;2024-03-29T00:52:28;99063.31;;;9.33;69.78
83100;BME280;72972;51.784;4.660;2024-03-29T00:54:54;99057.47;;;9.30;69.78
83100;BME280;72972;51.784;4.660;2024-03-29T00:57:19;99064.38;;;9.32;70.25
83100;BME280;72972;51.784;4.660;2024-03-29T00:59:46;99074.25;;;9.33;68.92
83100;BME280;72972;51.784;4.660;2024-03-29T01:02:12;99080.19;;;9.30;69.81
83100;BME280;72972;51.784;4.660;2024-03-29T01:04:37;99089.81;;;9.33;68.95
83100;BME280;72972;51.784;4.660;2024-03-29T01:07:04;99079.09;;;9.31;69.51
83100;BME280;72972;51.784;4.660;2024-03-29T01:09:29;99079.34;;;9.30;68.97
83100;BME280;72972;51.784;4.660;2024-03-29T01:11:55;99087.31;;;9.31;68.74
83100;BME280;72972;51.784;4.660;2024-03-29T01:14:20;99084.00;;;9.29;68.72
83100;BME280;72972;51.784;4.660;2024-03-29T01:16:46;99083.38;;;9.27;68.92
83100;BME280;72972;51.784;4.660;2024-03-29T01:19:11;99078.75;;;9.28;69.18
83100;BME280;72972;51.784;4.660;2024-03-29T01:21:37;99077.53;;;9.24;69.04
83100;BME280;72972;51.784;4.660;2024-03-29T01:24:03;99074.56;;;9.25;69.56
83100;BME280;72972;51.784;4.660;2024-03-29T01:26:28;99058.31;;;9.30;68.39
83100;BME280;72972;51.784;4.660;2024-03-29T01:28:54;99063.31;;;9.33;68.58
83100;BME280;72972;51.784;4.660;2024-03-29T01:31:19;99055.81;;;9.29;68.92
83100;BME280;72972;51.784;4.660;2024-03-29T01:33:44;99054.97;;;9.28;68.35
83100;BME280;72972;51.784;4.660;2024-03-29T01:36:10;99056.41;;;9.31;68.66
83100;BME280;72972;51.784;4.660;2024-03-29T01:38:36;99049.06;;;9.13;69.57
83100;BME280;72972;51.784;4.660;2024-03-29T01:41:01;99046.34;;;9.13;69.33
83100;BME280;72972;51.784;4.660;2024-03-29T01:43:27;99027.50;;;9.05;70.13
83100;BME280;72972;51.784;4.660;2024-03-29T01:45:54;99048.09;;;9.08;70.30
83100;BME280;72972;51.784;4.660;2024-03-29T01:48:22;99038.41;;;8.93;70.39
83100;BME280;72972;51.784;4.660;2024-03-29T01:50:49;99058.50;;;8.99;70.50
83100;BME280;72972;51.784;4.660;2024-03-29T01:53:16;99050.19;;;8.94;70.19
83100;BME280;72972;51.784;4.660;2024-03-29T01:55:43;99042.75;;;8.83;70.29
83100;BME280;72972;51.784;4.660;2024-03-29T01:58:09;99037.50;;;8.81;71.38
83100;BME280;72972;51.784;4.660;2024-03-29T02:00:41;99053.84;;;8.88;70.45
83100;BME280;72972;51.784;4.660;2024-03-29T02:03:09;99039.63;;;8.79;70.67
83100;BME280;72972;51.784;4.660;2024-03-29T02:05:39;99050.88;;;8.89;70.35
83100;BME280;72972;51.784;4.660;2024-03-29T02:08:06;99055.50;;;8.89;70.67
83100;BME280;72972;51.784;4.660;2024-03-29T02:10:32;99060.50;;;8.92;69.99
83100;BME280;72972;51.784;4.660;2024-03-29T02:12:57;99060.97;;;8.89;70.40
83100;BME280;72972;51.784;4.660;2024-03-29T02:15:23;99059.88;;;8.90;70.78
83100;BME280;72972;51.784;4.660;2024-03-29T02:17:48;99063.00;;;8.93;70.48
83100;BME280;72972;51.784;4.660;2024-03-29T02:20:15;99070.59;;;8.91;69.74
83100;BME280;72972;51.784;4.660;2024-03-29T02:22:47;99072.88;;;8.94;69.90
83100;BME280;72972;51.784;4.660;2024-03-29T02:25:14;99070.53;;;8.98;70.13
83100;BME280;72972;51.784;4.660;2024-03-29T02:27:39;99079.09;;;9.02;69.11
83100;BME280;72972;51.784;4.660;2024-03-29T02:30:05;99084.47;;;9.08;68.23
83100;BME280;72972;51.784;4.660;2024-03-29T02:32:31;99075.22;;;9.09;68.31
83100;BME280;72972;51.784;4.660;2024-03-29T02:34:56;99078.47;;;9.18;67.91
83100;BME280;72972;51.784;4.660;2024-03-29T02:37:21;99073.00;;;9.18;67.39
83100;BME280;72972;51.784;4.660;2024-03-29T02:39:47;99077.53;;;9.24;68.29
83100;BME280;72972;51.784;4.660;2024-03-29T02:42:12;99068.50;;;9.23;67.79
83100;BME280;72972;51.784;4.660;2024-03-29T02:44:38;99064.09;;;9.22;66.93
83100;BME280;72972;51.784;4.660;2024-03-29T02:47:03;99069.00;;;9.32;66.79
83100;BME280;72972;51.784;4.660;2024-03-29T02:49:29;99062.13;;;9.29;67.33
83100;BME280;72972;51.784;4.660;2024-03-29T02:51:54;99083.53;;;9.32;66.94
83100;BME280;72972;51.784;4.660;2024-03-29T02:54:20;99071.28;;;9.35;67.51
83100;BME280;72972;51.784;4.660;2024-03-29T02:56:45;99063.78;;;9.30;67.09
83100;BME280;72972;51.784;4.660;2024-03-29T02:59:10;99075.81;;;9.41;66.51
83100;BME280;72972;51.784;4.660;2024-03-29T03:01:36;99064.19;;;9.45;66.04
83100;BME280;72972;51.784;4.660;2024-03-29T03:04:02;99081.81;;;9.49;66.60
83100;BME280;72972;51.784;4.660;2024-03-29T03:06:27;99072.38;;;9.45;65.95
83100;BME280;72972;51.784;4.660;2024-03-29T03:08:53;99080.03;;;9.55;65.78
83100;BME280;72972;51.784;4.660;2024-03-29T03:11:36;99072.31;;;9.52;66.08
83100;BME280;72972;51.784;4.660;2024-03-29T03:14:02;99074.34;;;9.56;65.19
83100;BME280;72972;51.784;4.660;2024-03-29T03:16:27;99103.50;;;9.62;65.60
83100;BME280;72972;51.784;4.660;2024-03-29T03:18:52;99090.91;;;9.61;66.03
83100;BME280;72972;51.784;4.660;2024-03-29T03:21:18;99083.25;;;9.52;65.81
83100;BME280;72972;51.784;4.660;2024-03-29T03:23:43;99100.84;;;9.56;65.85
83100;BME280;72972;51.784;4.660;2024-03-29T03:26:09;99103.81;;;9.54;67.46
83100;BME280;72972;51.784;4.660;2024-03-29T03:28:34;99100.50;;;9.52;67.03
83100;BME280;72972;51.784;4.660;2024-03-29T03:31:00;99093.34;;;9.51;67.42
83100;BME280;72972;51.784;4.660;2024-03-29T03:33:26;99080.38;;;9.47;67.36
83100;BME280;72972;51.784;4.660;2024-03-29T03:35:51;99093.81;;;9.48;66.85
83100;BME280;72972;51.784;4.660;2024-03-29T03:38:17;99092.63;;;9.44;66.92
83100;BME280;72972;51.784;4.660;2024-03-29T03:40:42;99099.75;;;9.45;66.92
83100;BME280;72972;51.784;4.660;2024-03-29T03:43:08;99097.63;;;9.47;66.88
83100;BME280;72972;51.784;4.660;2024-03-29T03:45:38;99097.72;;;9.41;67.60
83100;BME280;72972;51.784;4.660;2024-03-29T03:48:05;99101.06;;;9.43;66.74
83100;BME280;72972;51.784;4.660;2024-03-29T03:50:31;99090.34;;;9.41;66.61
83100;BME280;72972;51.784;4.660;2024-03-29T03:52:56;99109.63;;;9.46;67.04
83100;BME280;72972;51.784;4.660;2024-03-29T03:55:22;99112.00;;;9.43;67.86
83100;BME280;72972;51.784;4.660;2024-03-29T03:57:47;99109.13;;;9.38;67.59
83100;BME280;72972;51.784;4.660;2024-03-29T04:00:18;99112.31;;;9.35;68.72
83100;BME280;72972;51.784;4.660;2024-03-29T04:02:51;99114.44;;;9.33;69.17
83100;BME280;72972;51.784;4.660;2024-03-29T04:05:20;99098.13;;;9.26;68.85
83100;BME280;72972;51.784;4.660;2024-03-29T04:07:46;99107.84;;;9.22;69.29
83100;BME280;72972;51.784;4.660;2024-03-29T04:10:12;99108.09;;;9.21;70.22
83100;BME280;72972;51.784;4.660;2024-03-29T04:12:38;99107.50;;;9.19;71.50
83100;BME280;72972;51.784;4.660;2024-03-29T04:15:04;99106.97;;;9.10;72.43
83100;BME280;72972;51.784;4.660;2024-03-29T04:17:30;99091.56;;;8.98;73.08
83100;BME280;72972;51.784;4.660;2024-03-29T04:19:57;99105.00;;;8.99;73.37
83100;BME280;72972;51.784;4.660;2024-03-29T04:22:22;99113.53;;;8.91;74.49
83100;BME280;72972;51.784;4.660;2024-03-29T04:24:48;99100.09;;;8.89;74.91
83100;BME280;72972;51.784;4.660;2024-03-29T04:27:14;99108.13;;;8.84;75.05
83100;BME280;72972;51.784;4.660;2024-03-29T04:29:39;99102.88;;;8.83;75.82
83100;BME280;72972;51.784;4.660;2024-03-29T04:32:05;99103.13;;;8.81;76.76
83100;BME280;72972;51.784;4.660;2024-03-29T04:34:30;99092.94;;;8.70;78.74
83100;BME280;72972;51.784;4.660;2024-03-29T04:36:56;99092.88;;;8.59;81.02
83100;BME280;72972;51.784;4.660;2024-03-29T04:39:22;99110.84;;;8.48;81.61
83100;BME280;72972;51.784;4.660;2024-03-29T04:41:47;99110.91;;;8.42;82.10
83100;BME280;72972;51.784;4.660;2024-03-29T04:44:13;99124.03;;;8.33;84.34
83100;BME280;72972;51.784;4.660;2024-03-29T04:46:49;99131.81;;;8.30;83.99
83100;BME280;72972;51.784;4.660;2024-03-29T04:49:14;99142.56;;;8.25;84.94
83100;BME280;72972;51.784;4.660;2024-03-29T04:51:42;99143.22;;;8.20;85.11
83100;BME280;72972;51.784;4.660;2024-03-29T04:54:08;99159.41;;;8.15;86.12
83100;BME280;72972;51.784;4.660;2024-03-29T04:56:34;99155.03;;;8.14;86.45
83100;BME280;72972;51.784;4.660;2024-03-29T04:59:01;99158.44;;;8.10;85.95
83100;BME280;72972;51.784;4.660;2024-03-29T05:01:27;99162.91;;;8.04;87.43
83100;BME280;72972;51.784;4.660;2024-03-29T05:03:53;99156.19;;;8.00;87.70
83100;BME280;72972;51.784;4.660;2024-03-29T05:06:18;99158.53;;;7.97;87.51
83100;BME280;72972;51.784;4.660;2024-03-29T05:08:44;99153.09;;;7.97;88.69
83100;BME280;72972;51.784;4.660;2024-03-29T05:11:09;99157.06;;;7.94;89.45
83100;BME280;72972;51.784;4.660;2024-03-29T05:13:36;99156.06;;;7.89;89.15
83100;BME280;72972;51.784;4.660;2024-03-29T05:16:03;99166.56;;;7.92;89.49
83100;BME280;72972;51.784;4.660;2024-03-29T05:18:29;99174.56;;;7.87;89.95
83100;BME280;72972;51.784;4.660;2024-03-29T05:20:54;99177.88;;;7.95;89.03
83100;BME280;72972;51.784;4.660;2024-03-29T05:23:20;99179.75;;;7.95;89.09
83100;BME280;72972;51.784;4.660;2024-03-29T05:25:45;99169.47;;;7.97;89.49
83100;BME280;72972;51.784;4.660;2024-03-29T05:28:13;99173.72;;;7.86;90.04
83100;BME280;72972;51.784;4.660;2024-03-29T05:30:39;99182.53;;;7.88;90.85
83100;BME280;72972;51.784;4.660;2024-03-29T05:33:04;99169.09;;;7.87;90.25
83100;BME280;72972;51.784;4.660;2024-03-29T05:35:30;99163.00;;;7.85;91.38
83100;BME280;72972;51.784;4.660;2024-03-29T05:37:55;99173.13;;;7.84;92.07
83100;BME280;72972;51.784;4.660;2024-03-29T05:40:21;99179.22;;;7.80;91.88
83100;BME280;72972;51.784;4.660;2024-03-29T05:42:50;99194.75;;;7.79;92.40
83100;BME280;72972;51.784;4.660;2024-03-29T05:45:26;99177.75;;;7.77;93.02
83100;BME280;72972;51.784;4.660;2024-03-29T05:47:53;99181.31;;;7.84;93.24
83100;BME280;72972;51.784;4.660;2024-03-29T05:50:20;99184.25;;;7.83;94.08
83100;BME280;72972;51.784;4.660;2024-03-29T05:52:45;99187.03;;;7.70;94.48
83100;BME280;72972;51.784;4.660;2024-03-29T05:55:11;99194.34;;;7.76;94.70
83100;BME280;72972;51.784;4.660;2024-03-29T05:57:36;99190.63;;;7.70;95.15
83100;BME280;72972;51.784;4.660;2024-03-29T06:00:15;99203.59;;;7.75;95.14
83100;BME280;72972;51.784;4.660;2024-03-29T06:02:42;99202.53;;;7.76;95.17
83100;BME280;72972;51.784;4.660;2024-03-29T06:05:08;99189.56;;;7.71;95.16
83100;BME280;72972;51.784;4.660;2024-03-29T06:07:34;99194.56;;;7.74;95.80
83100;BME280;72972;51.784;4.660;2024-03-29T06:10:00;99191.03;;;7.74;95.66
83100;BME280;72972;51.784;4.660;2024-03-29T06:12:29;99193.34;;;7.70;96.14
83100;BME280;72972;51.784;4.660;2024-03-29T06:14:54;99190.84;;;7.69;95.84
83100;BME280;72972;51.784;4.660;2024-03-29T06:17:38;99199.00;;;7.75;95.98
83100;BME280;72972;51.784;4.660;2024-03-29T06:20:04;99206.97;;;7.77;95.93
83100;BME280;72972;51.784;4.660;2024-03-29T06:22:30;99205.69;;;7.79;95.82
83100;BME280;72972;51.784;4.660;2024-03-29T06:24:56;99191.94;;;7.61;96.03
83100;BME280;72972;51.784;4.660;2024-03-29T06:27:34;99211.59;;;7.70;95.90
83100;BME280;72972;51.784;4.660;2024-03-29T06:30:00;99207.00;;;7.70;96.43
83100;BME280;72972;51.784;4.660;2024-03-29T06:32:26;99207.41;;;7.74;96.69
83100;BME280;72972;51.784;4.660;2024-03-29T06:34:51;99209.75;;;7.64;95.99
83100;BME280;72972;51.784;4.660;2024-03-29T06:37:17;99196.72;;;7.66;96.08
83100;BME280;72972;51.784;4.660;2024-03-29T06:39:42;99191.03;;;7.74;95.01
83100;BME280;72972;51.784;4.660;2024-03-29T06:42:09;99211.56;;;7.76;95.09
83100;BME280;72972;51.784;4.660;2024-03-29T06:44:35;99198.56;;;7.78;95.05
83100;BME280;72972;51.784;4.660;2024-03-29T06:47:02;99188.00;;;7.82;95.20
83100;BME280;72972;51.784;4.660;2024-03-29T06:49:27;99205.19;;;7.89;95.02
83100;BME280;72972;51.784;4.660;2024-03-29T06:51:53;99201.19;;;7.91;95.36
83100;BME280;72972;51.784;4.660;2024-03-29T06:54:19;99194.91;;;7.91;95.19
83100;BME280;72972;51.784;4.660;2024-03-29T06:56:48;99195.28;;;7.94;94.94
83100;BME280;72972;51.784;4.660;2024-03-29T06:59:13;99197.50;;;8.10;93.94
83100;BME280;72972;51.784;4.660;2024-03-29T07:01:39;99195.50;;;8.30;93.31
83100;BME280;72972;51.784;4.660;2024-03-29T07:04:04;99208.34;;;8.48;91.47
83100;BME280;72972;51.784;4.660;2024-03-29T07:06:30;99197.97;;;8.56;92.01
83100;BME280;72972;51.784;4.660;2024-03-29T07:08:55;99199.75;;;8.44;91.62
83100;BME280;72972;51.784;4.660;2024-03-29T07:11:20;99198.09;;;8.43;92.16
83100;BME280;72972;51.784;4.660;2024-03-29T07:13:46;99216.69;;;8.35;92.19
83100;BME280;72972;51.784;4.660;2024-03-29T07:16:11;99215.44;;;8.31;91.84
83100;BME280;72972;51.784;4.660;2024-03-29T07:18:37;99223.84;;;8.29;91.94
83100;BME280;72972;51.784;4.660;2024-03-29T07:21:02;99233.78;;;8.24;91.71
83100;BME280;72972;51.784;4.660;2024-03-29T07:23:28;99228.91;;;8.26;93.15
83100;BME280;72972;51.784;4.660;2024-03-29T07:25:58;99234.13;;;8.27;93.05
83100;BME280;72972;51.784;4.660;2024-03-29T07:28:24;99228.25;;;8.30;93.26
83100;BME280;72972;51.784;4.660;2024-03-29T07:30:49;99227.97;;;8.38;93.03
83100;BME280;72972;51.784;4.660;2024-03-29T07:33:18;99222.88;;;8.48;92.04
83100;BME280;72972;51.784;4.660;2024-03-29T07:35:47;99219.00;;;8.56;91.18
83100;BME280;72972;51.784;4.660;2024-03-29T07:38:13;99215.41;;;8.80;90.87
83100;BME280;72972;51.784;4.660;2024-03-29T07:40:40;99215.09;;;9.13;89.07
83100;BME280;72972;51.784;4.660;2024-03-29T07:43:06;99229.56;;;9.67;88.92
83100;BME280;72972;51.784;4.660;2024-03-29T07:45:31;99225.78;;;9.80;86.25
83100;BME280;72972;51.784;4.660;2024-03-29T07:47:57;99232.53;;;9.95;85.80
83100;BME280;72972;51.784;4.660;2024-03-29T07:50:22;99237.75;;;10.15;85.58
83100;BME280;72972;51.784;4.660;2024-03-29T07:52:50;99224.81;;;10.33;84.63
83100;BME280;72972;51.784;4.660;2024-03-29T07:55:16;99227.47;;;10.51;83.89
83100;BME280;72972;51.784;4.660;2024-03-29T07:57:41;99212.81;;;10.46;82.50
83100;BME280;72972;51.784;4.660;2024-03-29T08:00:16;99221.16;;;10.39;82.77
83100;BME280;72972;51.784;4.660;2024-03-29T08:02:41;99222.69;;;10.35;83.29
83100;BME280;72972;51.784;4.660;2024-03-29T08:05:07;99229.19;;;10.11;83.08
83100;BME280;72972;51.784;4.660;2024-03-29T08:07:32;99240.72;;;10.13;82.81
83100;BME280;72972;51.784;4.660;2024-03-29T08:09:58;99238.09;;;10.07;83.69
83100;BME280;72972;51.784;4.660;2024-03-29T08:12:23;99247.56;;;10.04;84.00
83100;BME280;72972;51.784;4.660;2024-03-29T08:14:48;99246.09;;;10.08;84.23
83100;BME280;72972;51.784;4.660;2024-03-29T08:17:14;99232.44;;;10.02;84.29
83100;BME280;72972;51.784;4.660;2024-03-29T08:19:40;99243.72;;;9.94;84.48
83100;BME280;72972;51.784;4.660;2024-03-29T08:22:07;99248.84;;;9.90;84.58
83100;BME280;72972;51.784;4.660;2024-03-29T08:24:36;99264.75;;;9.82;85.14
83100;BME280;72972;51.784;4.660;2024-03-29T08:27:01;99268.78;;;9.79;84.65
83100;BME280;72972;51.784;4.660;2024-03-29T08:29:27;99287.34;;;9.77;85.04
83100;BME280;72972;51.784;4.660;2024-03-29T08:31:53;99282.56;;;9.73;84.45
83100;BME280;72972;51.784;4.660;2024-03-29T08:34:18;99278.84;;;9.67;85.88
83100;BME280;72972;51.784;4.660;2024-03-29T08:36:44;99279.53;;;9.63;85.82
83100;BME280;72972;51.784;4.660;2024-03-29T08:39:09;99285.69;;;9.58;87.49
83100;BME280;72972;51.784;4.660;2024-03-29T08:41:37;99285.69;;;9.58;86.18
83100;BME280;72972;51.784;4.660;2024-03-29T08:44:02;99275.31;;;9.60;86.27
83100;BME280;72972;51.784;4.660;2024-03-29T08:46:28;99271.59;;;9.73;86.00
83100;BME280;72972;51.784;4.660;2024-03-29T08:48:53;99285.91;;;9.75;86.02
83100;BME280;72972;51.784;4.660;2024-03-29T08:51:20;99290.16;;;9.71;86.54
83100;BME280;72972;51.784;4.660;2024-03-29T08:53:46;99285.81;;;9.63;86.51
83100;BME280;72972;51.784;4.660;2024-03-29T08:56:12;99286.97;;;9.56;86.59
83100;BME280;72972;51.784;4.660;2024-03-29T08:58:38;99285.00;;;9.63;87.14
83100;BME280;72972;51.784;4.660;2024-03-29T09:01:04;99291.00;;;9.71;86.86
83100;BME280;72972;51.784;4.660;2024-03-29T09:03:29;99287.19;;;9.90;86.49
83100;BME280;72972;51.784;4.660;2024-03-29T09:05:55;99287.53;;;9.94;86.81
83100;BME280;72972;51.784;4.660;2024-03-29T09:08:21;99304.75;;;10.01;85.66
83100;BME280;72972;51.784;4.660;2024-03-29T09:10:46;99297.56;;;10.00;84.69
83100;BME280;72972;51.784;4.660;2024-03-29T09:13:12;99306.59;;;10.07;85.50
83100;BME280;72972;51.784;4.660;2024-03-29T09:15:38;99322.56;;;10.10;83.89
83100;BME280;72972;51.784;4.660;2024-03-29T09:18:03;99324.25;;;10.04;83.67
83100;BME280;72972;51.784;4.660;2024-03-29T09:20:36;99328.28;;;10.08;83.80
83100;BME280;72972;51.784;4.660;2024-03-29T09:23:03;99326.88;;;10.17;83.50
83100;BME280;72972;51.784;4.660;2024-03-29T09:25:29;99323.84;;;10.37;83.19
83100;BME280;72972;51.784;4.660;2024-03-29T09:27:55;99320.88;;;10.38;84.30
83100;BME280;72972;51.784;4.660;2024-03-29T09:30:21;99326.44;;;10.32;83.78
83100;BME280;72972;51.784;4.660;2024-03-29T09:32:47;99319.63;;;10.23;83.83
83100;BME280;72972;51.784;4.660;2024-03-29T09:35:15;99315.47;;;10.20;83.85
83100;BME280;72972;51.784;4.660;2024-03-29T09:37:40;99328.22;;;10.26;83.66
83100;BME280;72972;51.784;4.660;2024-03-29T09:40:10;99322.28;;;10.29;83.41
83100;BME280;72972;51.784;4.660;2024-03-29T09:42:38;99328.09;;;10.51;82.97
83100;BME280;72972;51.784;4.660;2024-03-29T09:45:04;99345.03;;;10.59;83.70
83100;BME280;72972;51.784;4.660;2024-03-29T09:47:31;99333.81;;;10.61;82.64
83100;BME280;72972;51.784;4.660;2024-03-29T09:49:59;99342.69;;;10.75;82.68
83100;BME280;72972;51.784;4.660;2024-03-29T09:52:29;99319.25;;;11.02;82.76
83100;BME280;72972;51.784;4.660;2024-03-29T09:54:55;99328.34;;;11.25;80.40
83100;BME280;72972;51.784;4.660;2024-03-29T09:57:22;99319.84;;;11.38;80.10
83100;BME280;72972;51.784;4.660;2024-03-29T09:59:49;99317.84;;;11.68;79.64
83100;BME280;72972;51.784;4.660;2024-03-29T10:02:16;99312.00;;;11.65;79.29
83100;BME280;72972;51.784;4.660;2024-03-29T10:04:46;99306.03;;;11.68;79.46
83100;BME280;72972;51.784;4.660;2024-03-29T10:07:18;99309.56;;;11.80;78.41
83100;BME280;72972;51.784;4.660;2024-03-29T10:09:48;99316.41;;;11.77;77.93
83100;BME280;72972;51.784;4.660;2024-03-29T10:12:13;99318.13;;;11.95;76.59
83100;BME280;72972;51.784;4.660;2024-03-29T10:14:46;99320.78;;;12.58;76.26
83100;BME280;72972;51.784;4.660;2024-03-29T10:17:20;99314.03;;;12.65;75.44
83100;BME280;72972;51.784;4.660;2024-03-29T10:19:46;99306.38;;;13.12;73.09
83100;BME280;72972;51.784;4.660;2024-03-29T10:22:13;99324.50;;;12.80;71.73
83100;BME280;72972;51.784;4.660;2024-03-29T10:24:38;99325.63;;;12.67;71.84
83100;BME280;72972;51.784;4.660;2024-03-29T10:27:04;99336.03;;;12.65;72.73
83100;BME280;72972;51.784;4.660;2024-03-29T10:34:49;99327.44;;;13.06;72.01
83100;BME280;72972;51.784;4.660;2024-03-29T10:37:19;99329.69;;;13.09;71.12
83100;BME280;72972;51.784;4.660;2024-03-29T10:39:52;99340.50;;;12.83;71.99
83100;BME280;72972;51.784;4.660;2024-03-29T10:42:21;99348.25;;;12.86;71.95
83100;BME280;72972;51.784;4.660;2024-03-29T10:44:56;99332.25;;;12.83;71.41
83100;BME280;72972;51.784;4.660;2024-03-29T10:47:26;99346.97;;;13.05;70.61
83100;BME280;72972;51.784;4.660;2024-03-29T10:49:53;99344.31;;;13.26;68.96
83100;BME280;72972;51.784;4.660;2024-03-29T10:52:21;99352.22;;;13.23;69.46
83100;BME280;72972;51.784;4.660;2024-03-29T10:54:49;99362.31;;;13.17;67.13
83100;BME280;72972;51.784;4.660;2024-03-29T10:57:25;99378.84;;;13.34;67.49
83100;BME280;72972;51.784;4.660;2024-03-29T11:05:10;99374.78;;;13.91;64.92
83100;BME280;72972;51.784;4.660;2024-03-29T11:07:39;99372.28;;;14.11;65.51
83100;BME280;72972;51.784;4.660;2024-03-29T11:10:06;99360.09;;;13.85;64.48
83100;BME280;72972;51.784;4.660;2024-03-29T11:12:45;99358.88;;;13.60;65.12
83100;BME280;72972;51.784;4.660;2024-03-29T11:15:22;99356.94;;;13.77;64.92
83100;BME280;72972;51.784;4.660;2024-03-29T11:17:54;99350.78;;;13.91;64.85
83100;BME280;72972;51.784;4.660;2024-03-29T11:20:24;99342.72;;;14.06;63.97
83100;BME280;72972;51.784;4.660;2024-03-29T11:22:55;99337.84;;;14.30;63.55
83100;BME280;72972;51.784;4.660;2024-03-29T11:25:22;99341.03;;;14.44;63.16
83100;BME280;72972;51.784;4.660;2024-03-29T11:27:47;99337.09;;;14.88;63.43
83100;BME280;72972;51.784;4.660;2024-03-29T11:30:18;99340.25;;;15.01;61.29
83100;BME280;72972;51.784;4.660;2024-03-29T11:32:45;99350.47;;;14.74;60.10
83100;BME280;72972;51.784;4.660;2024-03-29T11:35:14;99365.25;;;14.63;61.69
83100;BME280;72972;51.784;4.660;2024-03-29T11:37:41;99372.66;;;14.36;61.04
83100;BME280;72972;51.784;4.660;2024-03-29T11:40:10;99360.56;;;14.64;62.04
83100;BME280;72972;51.784;4.660;2024-03-29T11:42:47;99365.84;;;14.65;61.53
83100;BME280;72972;51.784;4.660;2024-03-29T11:45:12;99362.38;;;14.80;61.22
83100;BME280;72972;51.784;4.660;2024-03-29T11:47:39;99372.78;;;14.94;61.65
83100;BME280;72972;51.784;4.660;2024-03-29T11:50:07;99352.34;;;14.95;60.99
83100;BME280;72972;51.784;4.660;2024-03-29T11:52:34;99373.31;;;14.96;61.39
83100;BME280;72972;51.784;4.660;2024-03-29T11:55:00;99377.66;;;14.87;62.04
83100;BME280;72972;51.784;4.660;2024-03-29T11:57:26;99370.84;;;14.68;61.23
83100;BME280;72972;51.784;4.660;2024-03-29T11:59:52;99382.81;;;14.79;62.81
83100;BME280;72972;51.784;4.660;2024-03-29T12:02:18;99392.03;;;14.63;62.62
83100;BME280;72972;51.784;4.660;2024-03-29T12:04:44;99380.22;;;14.67;61.79
83100;BME280;72972;51.784;4.660;2024-03-29T12:07:11;99379.03;;;14.20;61.56
83100;BME280;72972;51.784;4.660;2024-03-29T12:09:38;99394.72;;;14.36;62.51
83100;BME280;72972;51.784;4.660;2024-03-29T12:12:07;99390.56;;;14.34;61.88
83100;BME280;72972;51.784;4.660;2024-03-29T12:14:35;99367.84;;;14.27;61.42
83100;BME280;72972;51.784;4.660;2024-03-29T12:17:11;99373.75;;;14.35;60.92
83100;BME280;72972;51.784;4.660;2024-03-29T12:19:38;99369.56;;;14.33;61.37
83100;BME280;72972;51.784;4.660;2024-03-29T12:22:08;99370.34;;;14.50;61.83
83100;BME280;72972;51.784;4.660;2024-03-29T12:24:35;99383.00;;;14.72;60.68
83100;BME280;72972;51.784;4.660;2024-03-29T12:27:02;99387.06;;;14.65;60.96
83100;BME280;72972;51.784;4.660;2024-03-29T12:29:28;99359.06;;;14.78;60.31
83100;BME280;72972;51.784;4.660;2024-03-29T12:32:00;99384.09;;;14.98;60.28
83100;BME280;72972;51.784;4.660;2024-03-29T12:34:26;99366.34;;;14.89;59.18
83100;BME280;72972;51.784;4.660;2024-03-29T12:36:53;99356.38;;;14.61;59.19
83100;BME280;72972;51.784;4.660;2024-03-29T12:39:19;99393.78;;;14.74;59.83
83100;BME280;72972;51.784;4.660;2024-03-29T12:41:48;99380.38;;;14.82;58.46
83100;BME280;72972;51.784;4.660;2024-03-29T12:44:14;99376.25;;;14.85;58.85
83100;BME280;72972;51.784;4.660;2024-03-29T12:46:40;99379.81;;;15.07;56.87
83100;BME280;72972;51.784;4.660;2024-03-29T12:49:06;99378.91;;;15.33;57.99
83100;BME280;72972;51.784;4.660;2024-03-29T12:51:33;99386.72;;;15.09;58.11
83100;BME280;72972;51.784;4.660;2024-03-29T12:54:02;99386.41;;;15.06;57.52
83100;BME280;72972;51.784;4.660;2024-03-29T12:56:30;99393.66;;;15.12;57.66
83100;BME280;72972;51.784;4.660;2024-03-29T12:58:56;99392.72;;;15.33;57.28
83100;BME280;72972;51.784;4.660;2024-03-29T13:01:24;99400.31;;;15.42;53.85
83100;BME280;72972;51.784;4.660;2024-03-29T13:03:51;99398.72;;;15.46;54.97
83100;BME280;72972;51.784;4.660;2024-03-29T13:06:17;99400.16;;;15.54;55.05
83100;BME280;72972;51.784;4.660;2024-03-29T13:08:45;99399.31;;;15.53;56.27
83100;BME280;72972;51.784;4.660;2024-03-29T13:11:11;99402.75;;;15.39;55.88
83100;BME280;72972;51.784;4.660;2024-03-29T13:13:38;99403.59;;;15.39;57.22
83100;BME280;72972;51.784;4.660;2024-03-29T13:16:05;99402.38;;;15.57;56.29